createdAt,value
2019-01-18T00:02:13.221Z,0.60
2019-01-18T00:04:44.552Z,0.60
2019-01-18T00:07:15.870Z,0.50
2019-01-18T00:09:47.227Z,0.50
2019-01-18T00:12:18.525Z,0.40
2019-01-18T00:14:50.053Z,0.40
2019-01-18T00:17:21.848Z,0.40
2019-01-18T00:19:53.215Z,0.40
2019-01-18T00:22:24.515Z,0.40
2019-01-18T00:24:55.844Z,0.50
2019-01-18T00:27:29.355Z,0.40
2019-01-18T00:30:00.174Z,0.40
2019-01-18T00:32:31.462Z,0.30
2019-01-18T00:35:02.802Z,0.20
2019-01-18T00:37:34.177Z,0.10
2019-01-18T00:40:06.795Z,0.10
2019-01-18T00:42:38.131Z,0.10
2019-01-18T00:45:12.783Z,0.00
2019-01-18T00:47:44.159Z,-0.10
2019-01-18T00:50:17.398Z,-0.10
2019-01-18T00:52:48.841Z,-0.10
2019-01-18T00:55:20.361Z,-0.10
2019-01-18T00:57:51.696Z,-0.10
2019-01-18T01:00:29.753Z,-0.10
2019-01-18T01:03:01.164Z,-0.10
2019-01-18T01:05:32.601Z,0.00
2019-01-18T01:08:03.918Z,0.10
2019-01-18T01:10:35.306Z,0.10
2019-01-18T01:13:06.745Z,0.10
2019-01-18T01:15:38.242Z,0.10
2019-01-18T01:18:09.825Z,0.00
2019-01-18T01:20:41.123Z,0.00
2019-01-18T01:23:12.487Z,0.00
2019-01-18T01:25:43.777Z,-0.10
2019-01-18T01:28:15.112Z,-0.30
2019-01-18T01:30:46.502Z,-0.30
2019-01-18T01:33:17.800Z,-0.30
2019-01-18T01:35:49.103Z,-0.20
2019-01-18T01:38:20.408Z,-0.30
2019-01-18T01:40:51.746Z,-0.40
2019-01-18T01:43:23.034Z,-0.30
2019-01-18T01:45:54.354Z,-0.40
2019-01-18T01:48:25.662Z,-0.50
2019-01-18T01:50:56.981Z,-0.50
2019-01-18T01:53:28.379Z,-0.60
2019-01-18T01:55:59.657Z,-0.60
2019-01-18T01:58:31.008Z,-0.60
2019-01-18T02:01:02.297Z,-0.70
2019-01-18T02:03:33.794Z,-0.90
2019-01-18T02:06:05.105Z,-1.00
2019-01-18T02:08:36.448Z,-1.00
2019-01-18T02:11:07.834Z,-1.00
2019-01-18T02:13:39.177Z,-1.00
2019-01-18T02:16:10.465Z,-0.90
2019-01-18T02:18:41.791Z,-0.80
2019-01-18T02:21:13.203Z,-0.70
2019-01-18T02:23:44.465Z,-0.70
2019-01-18T02:26:15.771Z,-0.70
2019-01-18T02:28:47.057Z,-0.60
2019-01-18T02:31:18.265Z,-0.60
2019-01-18T02:33:52.754Z,-0.60
2019-01-18T02:36:36.112Z,-0.60
2019-01-18T02:39:10.740Z,-0.60
2019-01-18T02:41:42.024Z,-0.60
2019-01-18T02:44:13.282Z,-0.70
2019-01-18T02:46:44.631Z,-0.80
2019-01-18T02:49:15.896Z,-0.80
2019-01-18T02:51:47.172Z,-0.70
2019-01-18T02:54:18.502Z,-0.70
2019-01-18T02:56:49.791Z,-0.60
2019-01-18T02:59:21.057Z,-0.50
2019-01-18T03:01:52.306Z,-0.40
2019-01-18T03:04:29.483Z,-0.50
2019-01-18T03:07:00.864Z,-0.50
2019-01-18T03:09:32.135Z,-0.50
2019-01-18T03:12:03.473Z,-0.60
2019-01-18T03:14:34.743Z,-0.50
2019-01-18T03:17:06.001Z,-0.50
2019-01-18T03:19:37.294Z,-0.40
2019-01-18T03:22:08.602Z,-0.40
2019-01-18T03:24:39.862Z,-0.50
2019-01-18T03:27:11.148Z,-0.50
2019-01-18T03:29:42.402Z,-0.50
2019-01-18T03:32:13.712Z,-0.60
2019-01-18T03:34:44.940Z,-0.70
2019-01-18T03:37:16.236Z,-0.80
2019-01-18T03:39:47.430Z,-0.90
2019-01-18T03:42:18.736Z,-0.80
2019-01-18T03:44:49.980Z,-0.80
2019-01-18T03:47:21.188Z,-0.80
2019-01-18T03:49:52.436Z,-0.80
2019-01-18T03:52:23.905Z,-0.90
2019-01-18T03:54:55.151Z,-1.00
2019-01-18T03:57:26.456Z,-1.10
2019-01-18T03:59:57.783Z,-1.10
2019-01-18T04:02:28.960Z,-1.10
2019-01-18T04:05:00.313Z,-1.20
2019-01-18T04:07:31.569Z,-1.30
2019-01-18T04:10:02.835Z,-1.50
2019-01-18T04:12:34.113Z,-1.70
2019-01-18T04:15:07.297Z,-1.90
2019-01-18T04:17:38.634Z,-2.10
2019-01-18T04:20:12.325Z,-2.30
2019-01-18T04:22:43.835Z,-2.40
2019-01-18T04:25:21.984Z,-2.40
2019-01-18T04:27:53.227Z,-2.40
2019-01-18T04:30:25.039Z,-2.40
2019-01-18T04:32:56.372Z,-2.50
2019-01-18T04:35:27.643Z,-2.60
2019-01-18T04:37:59.135Z,-2.70
2019-01-18T04:40:30.709Z,-2.90
2019-01-18T04:43:02.000Z,-2.90
2019-01-18T04:45:33.239Z,-3.00
2019-01-18T04:48:04.552Z,-3.00
2019-01-18T04:50:35.807Z,-3.00
2019-01-18T04:53:07.096Z,-3.00
2019-01-18T04:55:38.269Z,-3.10
2019-01-18T04:58:09.572Z,-3.10
2019-01-18T05:00:41.676Z,-3.10
2019-01-18T05:03:13.277Z,-3.20
2019-01-18T05:05:44.674Z,-3.20
2019-01-18T05:08:15.921Z,-3.20
2019-01-18T05:10:47.220Z,-3.20
2019-01-18T05:13:18.439Z,-3.20
2019-01-18T05:15:49.768Z,-3.20
2019-01-18T05:18:22.113Z,-3.20
2019-01-18T05:20:53.474Z,-3.20
2019-01-18T05:23:24.624Z,-3.20
2019-01-18T05:25:55.964Z,-3.20
2019-01-18T05:28:27.300Z,-3.20
2019-01-18T05:30:58.673Z,-3.20
2019-01-18T05:33:29.918Z,-3.30
2019-01-18T05:36:01.266Z,-3.40
2019-01-18T05:38:32.542Z,-3.40
2019-01-18T05:41:03.845Z,-3.40
2019-01-18T05:43:35.182Z,-3.40
2019-01-18T05:46:06.511Z,-3.50
2019-01-18T05:48:37.754Z,-3.50
2019-01-18T05:51:08.995Z,-3.40
2019-01-18T05:53:40.481Z,-3.30
2019-01-18T05:56:11.768Z,-3.20
2019-01-18T05:58:43.044Z,-3.30
2019-01-18T06:01:15.215Z,-3.30
2019-01-18T06:03:46.503Z,-3.30
2019-01-18T06:06:17.880Z,-3.30
2019-01-18T06:08:49.140Z,-3.30
2019-01-18T06:11:21.774Z,-3.40
2019-01-18T06:13:53.089Z,-3.40
2019-01-18T06:16:23.134Z,-3.40
2019-01-18T06:18:54.464Z,-3.40
2019-01-18T06:21:25.818Z,-3.40
2019-01-18T06:23:57.074Z,-3.40
2019-01-18T06:26:28.409Z,-3.50
2019-01-18T06:28:59.683Z,-3.50
2019-01-18T06:31:31.025Z,-3.50
2019-01-18T06:34:02.404Z,-3.40
2019-01-18T06:36:33.673Z,-3.40
2019-01-18T06:39:07.261Z,-3.40
2019-01-18T06:41:47.478Z,-3.40
2019-01-18T06:44:18.829Z,-3.40
2019-01-18T06:46:50.040Z,-3.40
2019-01-18T06:49:21.470Z,-3.40
2019-01-18T06:51:52.757Z,-3.40
2019-01-18T06:54:24.084Z,-3.40
2019-01-18T06:56:55.524Z,-3.30
2019-01-18T06:59:26.812Z,-3.30
2019-01-18T07:01:58.188Z,-3.30
2019-01-18T07:04:29.491Z,-3.40
2019-01-18T07:07:00.896Z,-3.40
2019-01-18T07:09:32.213Z,-3.40
2019-01-18T07:12:03.487Z,-3.40
2019-01-18T07:14:34.813Z,-3.50
2019-01-18T07:17:06.089Z,-3.50
2019-01-18T07:19:37.681Z,-3.60
2019-01-18T07:22:08.993Z,-3.60
2019-01-18T07:24:40.298Z,-3.50
2019-01-18T07:27:11.576Z,-3.50
2019-01-18T07:32:13.522Z,-3.50
2019-01-18T07:34:44.794Z,-3.30
2019-01-18T07:37:15.989Z,-3.20
2019-01-18T07:39:47.485Z,-3.10
2019-01-18T07:42:18.727Z,-3.00
2019-01-18T07:44:50.059Z,-3.00
2019-01-18T07:47:21.330Z,-3.00
2019-01-18T07:49:52.667Z,-3.10
2019-01-18T07:52:23.965Z,-3.10
2019-01-18T07:54:55.284Z,-3.10
2019-01-18T07:57:26.646Z,-3.10
2019-01-18T07:59:57.920Z,-3.10
2019-01-18T08:02:29.423Z,-3.00
2019-01-18T08:05:00.756Z,-2.90
2019-01-18T08:07:32.491Z,-2.90
2019-01-18T08:10:04.001Z,-2.80
2019-01-18T08:12:35.567Z,-2.70
2019-01-18T08:15:09.514Z,-2.60
2019-01-18T08:17:41.850Z,-2.40
2019-01-18T08:20:17.778Z,-2.30
2019-01-18T08:22:51.442Z,-2.10
2019-01-18T08:25:23.575Z,-1.90
2019-01-18T08:27:56.406Z,-1.80
2019-01-18T08:30:30.627Z,-1.60
2019-01-18T08:33:03.938Z,-1.50
2019-01-18T08:35:35.737Z,-1.40
2019-01-18T08:38:07.740Z,-1.30
2019-01-18T08:40:43.768Z,-1.20
2019-01-18T08:43:17.397Z,-1.10
2019-01-18T08:45:55.335Z,-1.10
2019-01-18T08:48:26.568Z,-0.90
2019-01-18T08:50:57.868Z,-0.90
2019-01-18T08:53:29.500Z,-0.80
2019-01-18T08:56:00.954Z,-0.70
2019-01-18T08:58:32.130Z,-0.70
2019-01-18T09:01:03.494Z,-0.60
2019-01-18T09:03:34.770Z,-0.60
2019-01-18T09:06:06.244Z,-0.60
2019-01-18T09:08:37.502Z,-0.60
2019-01-18T09:11:08.778Z,-0.60
2019-01-18T09:13:40.018Z,-0.50
2019-01-18T09:16:11.304Z,-0.60
2019-01-18T09:18:42.629Z,-0.70
2019-01-18T09:21:13.902Z,-0.70
2019-01-18T09:23:45.167Z,-0.80
2019-01-18T09:26:16.356Z,-0.70
2019-01-18T09:28:47.593Z,-0.60
2019-01-18T09:31:18.971Z,-0.40
2019-01-18T09:33:50.329Z,-0.40
2019-01-18T09:36:21.570Z,-0.30
2019-01-18T09:38:52.791Z,-0.20
2019-01-18T09:41:24.062Z,-0.20
2019-01-18T09:43:55.223Z,-0.10
2019-01-18T09:46:26.574Z,-0.10
2019-01-18T09:48:57.900Z,-0.20
2019-01-18T09:54:00.542Z,-0.30
2019-01-18T09:56:34.691Z,-0.20
2019-01-18T09:59:06.009Z,0.00
2019-01-18T10:01:37.339Z,0.10
2019-01-18T10:04:08.923Z,0.20
2019-01-18T10:06:40.413Z,0.20
2019-01-18T10:09:12.072Z,0.40
2019-01-18T10:11:43.404Z,0.40
2019-01-18T10:14:14.720Z,0.50
2019-01-18T10:16:46.051Z,0.50
2019-01-18T10:19:17.453Z,0.30
2019-01-18T10:21:49.102Z,0.40
2019-01-18T10:24:21.096Z,0.60
2019-01-18T10:26:55.387Z,0.60
2019-01-18T10:29:35.779Z,0.60
2019-01-18T10:32:18.251Z,0.60
2019-01-18T10:34:55.685Z,0.60
2019-01-18T10:37:29.312Z,0.50
2019-01-18T10:40:04.725Z,0.60
2019-01-18T10:42:37.469Z,0.70
2019-01-18T10:45:11.746Z,0.80
2019-01-18T10:47:43.280Z,0.80
2019-01-18T10:50:26.909Z,0.90
2019-01-18T10:53:00.563Z,0.90
2019-01-18T10:55:31.933Z,0.90
2019-01-18T10:58:03.443Z,0.90
2019-01-18T11:00:40.085Z,0.80
2019-01-18T11:03:12.519Z,0.70
2019-01-18T11:05:50.975Z,0.70
2019-01-18T11:08:22.249Z,0.60
2019-01-18T11:10:53.924Z,0.50
2019-01-18T11:13:25.316Z,0.40
2019-01-18T11:15:56.575Z,0.30
2019-01-18T11:18:27.851Z,0.30
2019-01-18T11:21:11.788Z,0.30
2019-01-18T11:23:43.107Z,0.40
2019-01-18T11:26:14.375Z,0.40
2019-01-18T11:28:45.647Z,0.50
2019-01-18T11:31:16.938Z,0.60
2019-01-18T11:33:54.394Z,0.60
2019-01-18T11:36:25.647Z,0.70
2019-01-18T11:38:56.873Z,0.70
2019-01-18T11:41:29.105Z,0.80
2019-01-18T11:44:00.371Z,0.80
2019-01-18T11:46:41.096Z,0.80
2019-01-18T11:49:12.347Z,0.80
2019-01-18T11:51:43.595Z,0.80
2019-01-18T11:54:14.906Z,0.80
2019-01-18T11:56:46.152Z,0.80
2019-01-18T11:59:17.588Z,0.80
2019-01-18T12:01:48.808Z,0.90
2019-01-18T12:04:20.069Z,0.90
2019-01-18T12:06:51.304Z,0.80
2019-01-18T12:09:22.526Z,0.80
2019-01-18T12:11:53.779Z,0.80
2019-01-18T12:14:25.063Z,0.90
2019-01-18T12:16:59.175Z,0.90
2019-01-18T12:19:36.598Z,0.90
2019-01-18T12:22:08.098Z,0.90
2019-01-18T12:24:39.397Z,0.90
2019-01-18T12:27:10.819Z,1.00
2019-01-18T12:29:47.182Z,0.90
2019-01-18T12:32:28.614Z,0.90
2019-01-18T12:34:55.453Z,1.00
2019-01-18T12:37:26.771Z,1.00
2019-01-18T12:39:57.995Z,1.10
2019-01-18T12:42:29.335Z,1.10
2019-01-18T12:45:01.256Z,1.10
2019-01-18T12:47:32.815Z,1.10
2019-01-18T12:50:04.064Z,1.20
2019-01-18T12:52:35.403Z,1.20
2019-01-18T12:55:07.795Z,1.30
2019-01-18T12:57:39.124Z,1.30
2019-01-18T13:00:15.335Z,1.30
2019-01-18T13:02:46.969Z,1.30
2019-01-18T13:05:22.762Z,1.40
2019-01-18T13:07:55.322Z,1.50
2019-01-18T13:10:26.768Z,1.50
2019-01-18T13:12:58.052Z,1.60
2019-01-18T13:15:57.985Z,1.60
2019-01-18T13:18:29.315Z,1.70
2019-01-18T13:21:00.692Z,1.70
2019-01-18T13:23:32.028Z,1.70
2019-01-18T13:26:03.285Z,1.70
2019-01-18T13:28:34.478Z,1.70
2019-01-18T13:31:05.970Z,1.70
2019-01-18T13:33:37.301Z,1.80
2019-01-18T13:36:15.485Z,1.90
2019-01-18T13:38:47.152Z,1.80
2019-01-18T13:41:18.456Z,1.80
2019-01-18T13:43:49.755Z,1.80
2019-01-18T13:46:21.184Z,1.80
2019-01-18T13:48:54.903Z,1.80
2019-01-18T13:51:26.252Z,1.70
2019-01-18T13:53:57.606Z,1.70
2019-01-18T13:56:30.572Z,1.70
2019-01-18T13:59:01.970Z,1.70
2019-01-18T14:01:33.204Z,1.60
2019-01-18T14:04:04.591Z,1.70
2019-01-18T14:06:35.836Z,1.60
2019-01-18T14:09:10.420Z,1.60
2019-01-18T14:11:41.760Z,1.50
2019-01-18T14:14:13.118Z,1.40
2019-01-18T14:16:44.493Z,1.50
2019-01-18T14:19:16.063Z,1.50
2019-01-18T14:21:47.358Z,1.50
2019-01-18T14:24:18.601Z,1.60
2019-01-18T14:26:53.900Z,1.60
2019-01-18T14:29:25.311Z,1.60
2019-01-18T14:31:56.600Z,1.70
2019-01-18T14:34:27.890Z,1.70
2019-01-18T14:37:01.504Z,1.70
2019-01-18T14:39:32.878Z,1.70
2019-01-18T14:42:04.198Z,1.70
2019-01-18T14:44:35.466Z,1.60
2019-01-18T14:47:07.608Z,1.50
2019-01-18T14:49:38.942Z,1.40
2019-01-18T14:52:10.968Z,1.30
2019-01-18T14:54:42.205Z,1.20
2019-01-18T14:57:13.500Z,1.20
2019-01-18T14:59:44.910Z,1.10
2019-01-18T15:02:16.303Z,1.00
2019-01-18T15:04:48.438Z,0.90
2019-01-18T15:07:19.625Z,0.90
2019-01-18T15:09:52.380Z,0.80
2019-01-18T15:12:23.658Z,0.70
2019-01-18T15:14:54.925Z,0.70
2019-01-18T15:17:26.129Z,0.60
2019-01-18T15:20:02.742Z,0.50
2019-01-18T15:22:34.039Z,0.40
2019-01-18T15:25:05.733Z,0.30
2019-01-18T15:27:37.007Z,0.20
2019-01-18T15:30:10.946Z,0.10
2019-01-18T15:32:42.207Z,0.00
2019-01-18T15:35:17.188Z,-0.10
2019-01-18T15:37:48.436Z,-0.20
2019-01-18T15:40:25.933Z,-0.30
2019-01-18T15:42:59.333Z,-0.30
2019-01-18T15:45:30.553Z,-0.40
2019-01-18T15:48:01.981Z,-0.40
2019-01-18T15:50:38.867Z,-0.40
2019-01-18T15:53:12.337Z,-0.40
2019-01-18T15:55:43.667Z,-0.50
2019-01-18T15:58:15.518Z,-0.60
2019-01-18T16:00:47.144Z,-0.70
2019-01-18T16:03:18.580Z,-0.70
2019-01-18T16:05:49.817Z,-0.70
2019-01-18T16:08:21.053Z,-0.70
2019-01-18T16:10:52.339Z,-0.80
2019-01-18T16:13:26.223Z,-0.80
2019-01-18T16:16:24.314Z,-0.90
2019-01-18T16:18:59.029Z,-1.00
2019-01-18T16:21:30.448Z,-1.10
2019-01-18T16:24:01.805Z,-1.20
2019-01-18T16:26:33.056Z,-1.20
2019-01-18T16:29:04.462Z,-1.30
2019-01-18T16:31:35.804Z,-1.40
2019-01-18T16:34:07.364Z,-1.40
2019-01-18T16:36:38.710Z,-1.50
2019-01-18T16:39:12.048Z,-1.50
2019-01-18T16:41:43.682Z,-1.50
2019-01-18T16:44:15.011Z,-1.60
2019-01-18T16:46:46.328Z,-1.60
2019-01-18T16:49:17.713Z,-1.60
2019-01-18T16:51:48.990Z,-1.60
2019-01-18T16:54:20.594Z,-1.70
2019-01-18T16:56:51.879Z,-1.60
2019-01-18T16:59:23.275Z,-1.60
2019-01-18T17:01:54.731Z,-1.70
2019-01-18T17:04:26.036Z,-1.70
2019-01-18T17:06:57.323Z,-1.60
2019-01-18T17:09:28.634Z,-1.50
2019-01-18T17:11:59.877Z,-1.40
2019-01-18T17:14:31.218Z,-1.40
2019-01-18T17:17:02.645Z,-1.50
2019-01-18T17:19:33.946Z,-1.40
2019-01-18T17:22:05.230Z,-1.50
2019-01-18T17:24:36.500Z,-1.50
2019-01-18T17:27:07.799Z,-1.40
2019-01-18T17:29:39.307Z,-1.50
2019-01-18T17:32:10.593Z,-1.50
2019-01-18T17:34:41.876Z,-1.60
2019-01-18T17:37:30.497Z,-1.60
2019-01-18T17:40:42.418Z,-1.70
2019-01-18T17:44:09.556Z,-1.70
2019-01-18T17:47:43.443Z,-1.70
2019-01-18T17:51:01.732Z,-1.80
2019-01-18T17:54:27.068Z,-1.80
2019-01-18T17:57:55.775Z,-1.90
2019-01-18T18:00:58.182Z,-2.00
2019-01-18T18:04:31.268Z,-2.00
2019-01-18T18:07:45.515Z,-2.10
2019-01-18T18:11:11.115Z,-2.10
2019-01-18T18:14:28.977Z,-2.10
2019-01-18T18:18:20.937Z,-2.10
2019-01-18T18:22:03.094Z,-2.10
2019-01-18T18:25:00.432Z,-2.00
2019-01-18T18:28:14.952Z,-2.10
2019-01-18T18:31:46.333Z,-2.20
2019-01-18T18:35:11.806Z,-2.20
2019-01-18T18:38:51.886Z,-2.20
2019-01-18T18:42:06.121Z,-2.20
2019-01-18T18:45:40.108Z,-2.30
2019-01-18T18:49:01.166Z,-2.20
2019-01-18T18:52:34.028Z,-2.30
2019-01-18T18:56:01.142Z,-2.40
2019-01-18T18:59:18.485Z,-2.40
2019-01-18T19:02:56.918Z,-2.50
2019-01-18T19:06:42.868Z,-2.40
2019-01-18T19:10:03.283Z,-2.20
2019-01-18T19:13:54.921Z,-1.90
2019-01-18T19:17:33.470Z,-1.70
2019-01-18T19:21:13.362Z,-1.50
2019-01-18T19:24:46.344Z,-1.50
2019-01-18T19:28:06.282Z,-1.40
2019-01-18T19:31:29.442Z,-1.30
2019-01-18T19:35:01.909Z,-1.30
2019-01-18T19:38:50.269Z,-1.30
2019-01-18T19:42:28.902Z,-1.40
2019-01-18T19:45:50.453Z,-1.30
2019-01-18T19:49:14.646Z,-1.40
2019-01-18T19:52:51.817Z,-1.50
2019-01-18T19:56:21.012Z,-1.60
2019-01-18T20:00:00.990Z,-1.70
2019-01-18T20:03:04.579Z,-1.70
2019-01-18T20:06:59.444Z,-1.70
2019-01-18T20:10:05.467Z,-1.80
2019-01-18T20:13:51.133Z,-1.90
2019-01-18T20:17:15.687Z,-1.90
2019-01-18T20:20:52.652Z,-1.90
2019-01-18T20:24:18.107Z,-1.80
2019-01-18T20:27:32.166Z,-1.70
2019-01-18T20:30:54.444Z,-1.70
2019-01-18T20:34:19.796Z,-1.70
2019-01-18T20:37:34.300Z,-1.60
2019-01-18T20:40:52.530Z,-1.50
2019-01-18T20:44:32.881Z,-1.50
2019-01-18T20:47:55.463Z,-1.50
2019-01-18T20:51:26.986Z,-1.50
2019-01-18T20:55:06.091Z,-1.40
2019-01-18T20:58:19.380Z,-1.30
2019-01-18T21:02:09.009Z,-1.10
2019-01-18T21:05:24.920Z,-1.10
2019-01-18T21:08:55.210Z,-1.00
2019-01-18T21:12:00.979Z,-1.00
2019-01-18T21:15:17.838Z,-1.10
2019-01-18T21:18:34.838Z,-1.20
2019-01-18T21:21:58.010Z,-1.10
2019-01-18T21:25:12.401Z,-1.10
2019-01-18T21:28:58.258Z,-1.10
2019-01-18T21:32:28.771Z,-1.10
2019-01-18T21:35:57.303Z,-1.20
2019-01-18T21:39:55.434Z,-1.40
2019-01-18T21:43:15.276Z,-1.50
2019-01-18T21:46:20.200Z,-1.60
2019-01-18T21:49:53.855Z,-1.60
2019-01-18T21:53:25.174Z,-1.60
2019-01-18T21:56:40.861Z,-1.60
2019-01-18T21:59:53.355Z,-1.70
2019-01-18T22:03:15.051Z,-1.70
2019-01-18T22:06:42.411Z,-1.70
2019-01-18T22:09:44.630Z,-1.80
2019-01-18T22:13:06.272Z,-1.80
2019-01-18T22:16:25.579Z,-1.80
2019-01-18T22:20:13.774Z,-1.90
2019-01-18T22:23:05.901Z,-2.10
2019-01-18T22:26:50.536Z,-2.10
2019-01-18T22:30:19.252Z,-2.20
2019-01-18T22:33:26.312Z,-2.20
2019-01-18T22:36:53.031Z,-2.20
2019-01-18T22:40:25.030Z,-2.10
2019-01-18T22:43:55.008Z,-2.10
2019-01-18T22:47:40.089Z,-2.10
2019-01-18T22:51:04.619Z,-2.10
2019-01-18T22:54:18.368Z,-2.20
2019-01-18T22:58:01.715Z,-2.20
2019-01-18T23:01:53.115Z,-2.30
2019-01-18T23:05:21.429Z,-2.40
2019-01-18T23:08:41.588Z,-2.60
2019-01-18T23:11:58.694Z,-2.70
2019-01-18T23:15:38.989Z,-2.80
2019-01-18T23:18:51.859Z,-2.70
2019-01-18T23:22:18.155Z,-2.70
2019-01-18T23:25:34.379Z,-2.60
2019-01-18T23:28:59.086Z,-2.70
2019-01-18T23:32:01.317Z,-2.70
2019-01-18T23:35:03.158Z,-2.80
2019-01-18T23:38:40.049Z,-2.90
2019-01-18T23:42:11.091Z,-2.90
2019-01-18T23:45:48.285Z,-2.90
2019-01-18T23:49:08.431Z,-3.00
2019-01-18T23:52:40.865Z,-2.90
2019-01-18T23:56:21.292Z,-2.90
2019-01-18T23:59:47.421Z,-2.80
